sensor_id;sensor_type;location;lat;lon;timestamp;pressure;altitude;pressure_sealevel;temperature;humidity
6218;BME280;3142;48.206;11.550;2023-04-07T00:01:29;95753.22;;;8.75;42.01
6218;BME280;3142;48.206;11.550;2023-04-07T00:03:56;95746.34;;;8.68;42.44
6218;BME280;3142;48.206;11.550;2023-04-07T00:06:23;95743.47;;;8.63;41.72
6218;BME280;3142;48.206;11.550;2023-04-07T00:08:51;95747.06;;;8.61;41.86
6218;BME280;3142;48.206;11.550;2023-04-07T00:11:17;95741.19;;;8.53;42.63
6218;BME280;3142;48.206;11.550;2023-04-07T00:13:43;95750.44;;;8.55;42.70
6218;BME280;3142;48.206;11.550;2023-04-07T00:16:10;95744.97;;;8.50;43.12
6218;BME280;3142;48.206;11.550;2023-04-07T00:18:36;95743.72;;;8.46;43.13
6218;BME280;3142;48.206;11.550;2023-04-07T00:21:03;95750.19;;;8.50;43.73
6218;BME280;3142;48.206;11.550;2023-04-07T00:23:29;95735.34;;;8.51;42.79
6218;BME280;3142;48.206;11.550;2023-04-07T00:25:57;95740.56;;;8.51;44.19
6218;BME280;3142;48.206;11.550;2023-04-07T00:28:23;95732.19;;;8.55;44.60
6218;BME280;3142;48.206;11.550;2023-04-07T00:30:50;95734.34;;;8.52;43.43
6218;BME280;3142;48.206;11.550;2023-04-07T00:33:16;95730.75;;;8.53;44.53
6218;BME280;3142;48.206;11.550;2023-04-07T00:35:42;95730.56;;;8.54;44.11
6218;BME280;3142;48.206;11.550;2023-04-07T00:38:09;95728.19;;;8.59;44.95
6218;BME280;3142;48.206;11.550;2023-04-07T00:40:36;95730.38;;;8.56;44.30
6218;BME280;3142;48.206;11.550;2023-04-07T00:43:03;95726.16;;;8.55;44.61
6218;BME280;3142;48.206;11.550;2023-04-07T00:45:30;95729.75;;;8.54;44.41
6218;BME280;3142;48.206;11.550;2023-04-07T00:47:57;95722.75;;;8.54;45.29
6218;BME280;3142;48.206;11.550;2023-04-07T00:50:23;95720.31;;;8.53;44.26
6218;BME280;3142;48.206;11.550;2023-04-07T00:52:50;95727.06;;;8.47;44.84
6218;BME280;3142;48.206;11.550;2023-04-07T00:55:17;95719.72;;;8.51;45.35
6218;BME280;3142;48.206;11.550;2023-04-07T00:57:43;95724.13;;;8.50;45.69
6218;BME280;3142;48.206;11.550;2023-04-07T01:00:12;95713.50;;;8.52;45.77
6218;BME280;3142;48.206;11.550;2023-04-07T01:02:41;95714.91;;;8.54;45.04
6218;BME280;3142;48.206;11.550;2023-04-07T01:05:12;95716.16;;;8.58;44.60
6218;BME280;3142;48.206;11.550;2023-04-07T01:07:50;95712.16;;;8.63;44.95
6218;BME280;3142;48.206;11.550;2023-04-07T01:10:40;95712.38;;;8.61;44.82
6218;BME280;3142;48.206;11.550;2023-04-07T01:13:20;95717.22;;;8.64;44.59
6218;BME280;3142;48.206;11.550;2023-04-07T01:15:51;95715.59;;;8.63;45.50
6218;BME280;3142;48.206;11.550;2023-04-07T01:18:25;95711.75;;;8.59;44.94
6218;BME280;3142;48.206;11.550;2023-04-07T01:20:55;95705.72;;;8.58;45.63
6218;BME280;3142;48.206;11.550;2023-04-07T01:23:29;95706.72;;;8.57;45.88
6218;BME280;3142;48.206;11.550;2023-04-07T01:26:08;95701.50;;;8.57;46.00
6218;BME280;3142;48.206;11.550;2023-04-07T01:28:56;95699.84;;;8.50;45.29
6218;BME280;3142;48.206;11.550;2023-04-07T01:31:31;95701.56;;;8.43;45.71
6218;BME280;3142;48.206;11.550;2023-04-07T01:33:59;95708.78;;;8.41;46.79
6218;BME280;3142;48.206;11.550;2023-04-07T01:36:28;95701.03;;;8.32;46.70
6218;BME280;3142;48.206;11.550;2023-04-07T01:38:58;95706.75;;;8.36;46.55
6218;BME280;3142;48.206;11.550;2023-04-07T01:41:25;95706.91;;;8.35;46.86
6218;BME280;3142;48.206;11.550;2023-04-07T01:43:52;95714.38;;;8.38;46.20
6218;BME280;3142;48.206;11.550;2023-04-07T01:46:19;95710.94;;;8.37;47.20
6218;BME280;3142;48.206;11.550;2023-04-07T01:48:47;95712.56;;;8.38;46.69
6218;BME280;3142;48.206;11.550;2023-04-07T01:51:15;95706.75;;;8.36;46.98
6218;BME280;3142;48.206;11.550;2023-04-07T01:53:43;95708.34;;;8.37;46.73
6218;BME280;3142;48.206;11.550;2023-04-07T01:56:10;95707.53;;;8.37;47.02
6218;BME280;3142;48.206;11.550;2023-04-07T01:58:37;95700.53;;;8.37;48.04
6218;BME280;3142;48.206;11.550;2023-04-07T02:01:03;95702.50;;;8.35;48.10
6218;BME280;3142;48.206;11.550;2023-04-07T02:03:33;95701.53;;;8.36;47.18
6218;BME280;3142;48.206;11.550;2023-04-07T02:06:05;95696.63;;;8.33;47.67
6218;BME280;3142;48.206;11.550;2023-04-07T02:08:35;95706.75;;;8.36;48.77
6218;BME280;3142;48.206;11.550;2023-04-07T02:11:04;95692.06;;;8.35;47.73
6218;BME280;3142;48.206;11.550;2023-04-07T02:13:33;95697.44;;;8.33;48.37
6218;BME280;3142;48.206;11.550;2023-04-07T02:16:00;95700.03;;;8.33;49.08
6218;BME280;3142;48.206;11.550;2023-04-07T02:18:29;95695.81;;;8.32;48.37
6218;BME280;3142;48.206;11.550;2023-04-07T02:20:57;95698.63;;;8.31;49.08
6218;BME280;3142;48.206;11.550;2023-04-07T02:23:26;95693.16;;;8.26;48.94
6218;BME280;3142;48.206;11.550;2023-04-07T02:25:55;95693.16;;;8.26;50.01
6218;BME280;3142;48.206;11.550;2023-04-07T02:28:22;95703.97;;;8.23;49.41
6218;BME280;3142;48.206;11.550;2023-04-07T02:30:48;95695.16;;;8.24;50.46
6218;BME280;3142;48.206;11.550;2023-04-07T02:33:15;95692.78;;;8.29;49.85
6218;BME280;3142;48.206;11.550;2023-04-07T02:35:41;95692.22;;;8.33;49.37
6218;BME280;3142;48.206;11.550;2023-04-07T02:38:07;95688.81;;;8.33;49.73
6218;BME280;3142;48.206;11.550;2023-04-07T02:40:35;95693.69;;;8.36;49.72
6218;BME280;3142;48.206;11.550;2023-04-07T02:43:02;95688.50;;;8.36;50.90
6218;BME280;3142;48.206;11.550;2023-04-07T02:45:29;95697.13;;;8.37;50.86
6218;BME280;3142;48.206;11.550;2023-04-07T02:47:55;95693.69;;;8.36;49.94
6218;BME280;3142;48.206;11.550;2023-04-07T02:50:22;95690.44;;;8.34;51.30
6218;BME280;3142;48.206;11.550;2023-04-07T02:52:50;95688.56;;;8.28;50.54
6218;BME280;3142;48.206;11.550;2023-04-07T02:55:16;95685.59;;;8.31;52.59
6218;BME280;3142;48.206;11.550;2023-04-07T02:57:45;95699.19;;;8.26;52.16
6218;BME280;3142;48.206;11.550;2023-04-07T03:00:14;95696.94;;;8.23;53.12
6218;BME280;3142;48.206;11.550;2023-04-07T03:02:41;95697.94;;;8.22;54.06
6218;BME280;3142;48.206;11.550;2023-04-07T03:05:08;95692.53;;;8.24;55.05
6218;BME280;3142;48.206;11.550;2023-04-07T03:07:34;95688.31;;;8.23;55.29
6218;BME280;3142;48.206;11.550;2023-04-07T03:10:01;95682.75;;;8.26;55.31
6218;BME280;3142;48.206;11.550;2023-04-07T03:12:27;95687.56;;;8.29;54.49
6218;BME280;3142;48.206;11.550;2023-04-07T03:14:55;95682.38;;;8.29;55.12
6218;BME280;3142;48.206;11.550;2023-04-07T03:17:21;95686.53;;;8.23;54.89
6218;BME280;3142;48.206;11.550;2023-04-07T03:19:48;95679.75;;;8.29;56.23
6218;BME280;3142;48.206;11.550;2023-04-07T03:22:16;95678.13;;;8.28;56.27
6218;BME280;3142;48.206;11.550;2023-04-07T03:24:42;95683.13;;;8.23;56.84
6218;BME280;3142;48.206;11.550;2023-04-07T03:27:08;95675.91;;;8.25;56.61
6218;BME280;3142;48.206;11.550;2023-04-07T03:29:35;95673.13;;;8.26;57.14
6218;BME280;3142;48.206;11.550;2023-04-07T03:32:03;95681.31;;;8.23;57.17
6218;BME280;3142;48.206;11.550;2023-04-07T03:34:29;95671.69;;;8.24;57.88
6218;BME280;3142;48.206;11.550;2023-04-07T03:36:56;95670.88;;;8.23;58.14
6218;BME280;3142;48.206;11.550;2023-04-07T03:39:22;95668.00;;;8.18;57.73
6218;BME280;3142;48.206;11.550;2023-04-07T03:41:49;95673.00;;;8.13;57.50
6218;BME280;3142;48.206;11.550;2023-04-07T03:44:15;95667.22;;;8.18;58.96
6218;BME280;3142;48.206;11.550;2023-04-07T03:46:42;95662.19;;;8.16;58.64
6218;BME280;3142;48.206;11.550;2023-04-07T03:49:10;95671.44;;;8.19;58.24
6218;BME280;3142;48.206;11.550;2023-04-07T03:51:37;95662.06;;;8.24;58.40
6218;BME280;3142;48.206;11.550;2023-04-07T03:54:03;95668.44;;;8.22;59.66
6218;BME280;3142;48.206;11.550;2023-04-07T03:56:30;95662.38;;;8.15;58.81
6218;BME280;3142;48.206;11.550;2023-04-07T03:58:56;95669.81;;;8.18;59.10
6218;BME280;3142;48.206;11.550;2023-04-07T04:01:23;95661.75;;;8.13;59.69
6218;BME280;3142;48.206;11.550;2023-04-07T04:03:50;95660.88;;;8.06;60.29
6218;BME280;3142;48.206;11.550;2023-04-07T04:06:17;95655.41;;;8.00;59.90
6218;BME280;3142;48.206;11.550;2023-04-07T04:08:44;95657.22;;;8.00;60.69
6218;BME280;3142;48.206;11.550;2023-04-07T04:11:10;95652.72;;;7.94;60.70
6218;BME280;3142;48.206;11.550;2023-04-07T04:13:37;95663.94;;;7.94;61.69
6218;BME280;3142;48.206;11.550;2023-04-07T04:16:04;95656.13;;;7.94;60.72
6218;BME280;3142;48.206;11.550;2023-04-07T04:18:30;95654.72;;;7.92;60.99
6218;BME280;3142;48.206;11.550;2023-04-07T04:20:57;95654.09;;;7.90;61.39
6218;BME280;3142;48.206;11.550;2023-04-07T04:23:24;95654.47;;;7.87;61.38
6218;BME280;3142;48.206;11.550;2023-04-07T04:25:51;95648.38;;;7.80;61.99
6218;BME280;3142;48.206;11.550;2023-04-07T04:28:17;95655.13;;;7.74;62.28
6218;BME280;3142;48.206;11.550;2023-04-07T04:30:43;95651.91;;;7.72;62.58
6218;BME280;3142;48.206;11.550;2023-04-07T04:33:10;95653.31;;;7.75;62.54
6218;BME280;3142;48.206;11.550;2023-04-07T04:35:36;95661.13;;;7.75;63.39
6218;BME280;3142;48.206;11.550;2023-04-07T04:38:03;95665.53;;;7.74;63.41
6218;BME280;3142;48.206;11.550;2023-04-07T04:40:31;95662.59;;;7.62;63.15
6218;BME280;3142;48.206;11.550;2023-04-07T04:42:57;95658.47;;;7.53;63.87
6218;BME280;3142;48.206;11.550;2023-04-07T04:45:24;95661.72;;;7.55;64.69
6218;BME280;3142;48.206;11.550;2023-04-07T04:47:50;95659.28;;;7.54;63.61
6218;BME280;3142;48.206;11.550;2023-04-07T04:50:17;95650.75;;;7.60;63.89
6218;BME280;3142;48.206;11.550;2023-04-07T04:52:43;95656.25;;;7.50;64.02
6218;BME280;3142;48.206;11.550;2023-04-07T04:55:10;95650.78;;;7.45;64.48
6218;BME280;3142;48.206;11.550;2023-04-07T04:57:38;95652.75;;;7.43;64.27
6218;BME280;3142;48.206;11.550;2023-04-07T05:00:06;95659.47;;;7.37;63.85
6218;BME280;3142;48.206;11.550;2023-04-07T05:02:32;95660.66;;;7.35;64.30
6218;BME280;3142;48.206;11.550;2023-04-07T05:04:59;95655.63;;;7.33;64.24
6218;BME280;3142;48.206;11.550;2023-04-07T05:07:25;95655.38;;;7.43;63.81
6218;BME280;3142;48.206;11.550;2023-04-07T05:09:52;95652.94;;;7.41;63.95
6218;BME280;3142;48.206;11.550;2023-04-07T05:12:18;95657.78;;;7.45;64.12
6218;BME280;3142;48.206;11.550;2023-04-07T05:14:46;95645.81;;;7.50;64.63
6218;BME280;3142;48.206;11.550;2023-04-07T05:17:12;95652.22;;;7.48;64.21
6218;BME280;3142;48.206;11.550;2023-04-07T05:19:39;95648.53;;;7.42;64.13
6218;BME280;3142;48.206;11.550;2023-04-07T05:22:05;95651.16;;;7.42;64.33
6218;BME280;3142;48.206;11.550;2023-04-07T05:24:31;95650.97;;;7.43;64.33
6218;BME280;3142;48.206;11.550;2023-04-07T05:26:58;95650.97;;;7.43;63.93
6218;BME280;3142;48.206;11.550;2023-04-07T05:29:25;95640.38;;;7.45;64.93
6218;BME280;3142;48.206;11.550;2023-04-07T05:31:53;95639.38;;;7.46;65.03
6218;BME280;3142;48.206;11.550;2023-04-07T05:34:20;95645.38;;;7.47;64.44
6218;BME280;3142;48.206;11.550;2023-04-07T05:36:46;95648.97;;;7.46;64.63
6218;BME280;3142;48.206;11.550;2023-04-07T05:39:12;95644.16;;;7.42;64.54
6218;BME280;3142;48.206;11.550;2023-04-07T05:41:39;95642.00;;;7.31;65.86
6218;BME280;3142;48.206;11.550;2023-04-07T05:44:06;95649.50;;;7.26;65.22
6218;BME280;3142;48.206;11.550;2023-04-07T05:46:32;95641.09;;;7.24;65.09
6218;BME280;3142;48.206;11.550;2023-04-07T05:49:00;95648.63;;;7.34;66.18
6218;BME280;3142;48.206;11.550;2023-04-07T05:51:27;95645.66;;;7.37;65.77
6218;BME280;3142;48.206;11.550;2023-04-07T05:53:53;95644.84;;;7.36;65.97
6218;BME280;3142;48.206;11.550;2023-04-07T05:56:20;95637.03;;;7.36;65.31
6218;BME280;3142;48.206;11.550;2023-04-07T05:58:46;95638.22;;;7.34;65.63
6218;BME280;3142;48.206;11.550;2023-04-07T06:01:13;95639.13;;;7.41;65.23
6218;BME280;3142;48.206;11.550;2023-04-07T06:03:39;95634.97;;;7.47;65.72
6218;BME280;3142;48.206;11.550;2023-04-07T06:06:08;95629.94;;;7.60;65.92
6218;BME280;3142;48.206;11.550;2023-04-07T06:08:34;95626.56;;;7.66;65.33
6218;BME280;3142;48.206;11.550;2023-04-07T06:11:01;95630.78;;;7.67;64.97
6218;BME280;3142;48.206;11.550;2023-04-07T06:13:27;95628.66;;;7.70;64.54
6218;BME280;3142;48.206;11.550;2023-04-07T06:15:53;95628.19;;;7.67;64.60
6218;BME280;3142;48.206;11.550;2023-04-07T06:18:20;95631.34;;;7.62;65.34
6218;BME280;3142;48.206;11.550;2023-04-07T06:20:46;95627.22;;;7.68;65.11
6218;BME280;3142;48.206;11.550;2023-04-07T06:23:14;95623.53;;;7.62;64.51
6218;BME280;3142;48.206;11.550;2023-04-07T06:25:41;95627.22;;;7.68;64.42
6218;BME280;3142;48.206;11.550;2023-04-07T06:28:07;95628.34;;;7.80;64.94
6218;BME280;3142;48.206;11.550;2023-04-07T06:30:34;95620.38;;;7.82;63.78
6218;BME280;3142;48.206;11.550;2023-04-07T06:33:00;95612.59;;;7.88;64.76
6218;BME280;3142;48.206;11.550;2023-04-07T06:35:26;95610.38;;;7.85;64.58
6218;BME280;3142;48.206;11.550;2023-04-07T06:37:53;95610.66;;;7.76;64.55
6218;BME280;3142;48.206;11.550;2023-04-07T06:40:21;95607.63;;;7.72;64.22
6218;BME280;3142;48.206;11.550;2023-04-07T06:42:47;95609.34;;;7.65;65.19
6218;BME280;3142;48.206;11.550;2023-04-07T06:45:14;95605.75;;;7.66;65.38
6218;BME280;3142;48.206;11.550;2023-04-07T06:47:40;95608.81;;;7.69;64.27
6218;BME280;3142;48.206;11.550;2023-04-07T06:50:07;95610.63;;;7.69;64.22
6218;BME280;3142;48.206;11.550;2023-04-07T06:52:34;95613.75;;;7.64;65.48
6218;BME280;3142;48.206;11.550;2023-04-07T06:55:00;95602.00;;;7.68;65.18
6218;BME280;3142;48.206;11.550;2023-04-07T06:57:28;95604.91;;;7.80;64.32
6218;BME280;3142;48.206;11.550;2023-04-07T06:59:55;95595.19;;;7.89;64.98
6218;BME280;3142;48.206;11.550;2023-04-07T07:02:21;95601.91;;;7.98;64.48
6218;BME280;3142;48.206;11.550;2023-04-07T07:04:48;95598.03;;;8.15;63.92
6218;BME280;3142;48.206;11.550;2023-04-07T07:07:14;95596.25;;;8.16;62.48
6218;BME280;3142;48.206;11.550;2023-04-07T07:09:40;95599.84;;;8.15;62.74
6218;BME280;3142;48.206;11.550;2023-04-07T07:12:07;95603.25;;;8.15;62.50
6218;BME280;3142;48.206;11.550;2023-04-07T07:14:34;95597.00;;;8.10;63.16
6218;BME280;3142;48.206;11.550;2023-04-07T07:17:01;95597.84;;;8.17;63.50
6218;BME280;3142;48.206;11.550;2023-04-07T07:19:27;95605.84;;;8.15;62.74
6218;BME280;3142;48.206;11.550;2023-04-07T07:21:54;95606.34;;;8.25;62.35
6218;BME280;3142;48.206;11.550;2023-04-07T07:24:20;95607.31;;;8.39;62.80
6218;BME280;3142;48.206;11.550;2023-04-07T07:26:47;95609.44;;;8.57;61.42
6218;BME280;3142;48.206;11.550;2023-04-07T07:29:13;95606.13;;;8.70;61.49
6218;BME280;3142;48.206;11.550;2023-04-07T07:31:41;95606.22;;;8.83;60.69
6218;BME280;3142;48.206;11.550;2023-04-07T07:34:08;95602.47;;;8.92;61.39
6218;BME280;3142;48.206;11.550;2023-04-07T07:36:34;95603.72;;;9.03;60.85
6218;BME280;3142;48.206;11.550;2023-04-07T07:39:01;95605.56;;;9.09;59.60
6218;BME280;3142;48.206;11.550;2023-04-07T07:41:27;95601.91;;;9.03;59.85
6218;BME280;3142;48.206;11.550;2023-04-07T07:43:54;95604.19;;;9.13;60.43
6218;BME280;3142;48.206;11.550;2023-04-07T07:46:20;95609.78;;;9.10;59.71
6218;BME280;3142;48.206;11.550;2023-04-07T07:48:49;95610.81;;;9.15;59.95
6218;BME280;3142;48.206;11.550;2023-04-07T07:51:16;95611.84;;;9.21;59.19
6218;BME280;3142;48.206;11.550;2023-04-07T07:53:43;95620.34;;;8.95;59.63
6218;BME280;3142;48.206;11.550;2023-04-07T07:56:09;95613.34;;;8.68;59.77
6218;BME280;3142;48.206;11.550;2023-04-07T07:58:36;95611.25;;;8.56;60.79
6218;BME280;3142;48.206;11.550;2023-04-07T08:01:03;95608.16;;;8.46;61.51
6218;BME280;3142;48.206;11.550;2023-04-07T08:03:29;95611.47;;;8.61;60.43
6218;BME280;3142;48.206;11.550;2023-04-07T08:05:57;95614.06;;;8.61;61.58
6218;BME280;3142;48.206;11.550;2023-04-07T08:08:23;95613.38;;;8.74;60.71
6218;BME280;3142;48.206;11.550;2023-04-07T08:10:50;95611.81;;;8.80;60.24
6218;BME280;3142;48.206;11.550;2023-04-07T08:13:16;95605.34;;;8.76;60.20
6218;BME280;3142;48.206;11.550;2023-04-07T08:15:43;95601.41;;;8.86;60.63
6218;BME280;3142;48.206;11.550;2023-04-07T08:18:09;95609.50;;;8.98;59.88
6218;BME280;3142;48.206;11.550;2023-04-07T08:20:36;95602.81;;;8.89;58.97
6218;BME280;3142;48.206;11.550;2023-04-07T08:23:03;95615.44;;;8.85;58.99
6218;BME280;3142;48.206;11.550;2023-04-07T08:25:30;95606.59;;;8.80;59.65
6218;BME280;3142;48.206;11.550;2023-04-07T08:27:56;95611.38;;;8.76;60.25
6218;BME280;3142;48.206;11.550;2023-04-07T08:30:23;95613.22;;;8.82;59.38
6218;BME280;3142;48.206;11.550;2023-04-07T08:32:49;95600.66;;;8.93;59.36
6218;BME280;3142;48.206;11.550;2023-04-07T08:35:16;95599.13;;;9.05;59.93
6218;BME280;3142;48.206;11.550;2023-04-07T08:37:42;95593.84;;;9.33;58.61
6218;BME280;3142;48.206;11.550;2023-04-07T08:40:11;95600.72;;;9.47;57.81
6218;BME280;3142;48.206;11.550;2023-04-07T08:42:40;95602.16;;;9.56;58.66
6218;BME280;3142;48.206;11.550;2023-04-07T08:45:07;95590.59;;;9.85;57.25
6218;BME280;3142;48.206;11.550;2023-04-07T08:47:35;95590.84;;;10.10;56.81
6218;BME280;3142;48.206;11.550;2023-04-07T08:50:04;95586.84;;;10.67;54.71
6218;BME280;3142;48.206;11.550;2023-04-07T08:52:32;95584.44;;;10.72;55.17
6218;BME280;3142;48.206;11.550;2023-04-07T08:54:59;95590.06;;;10.76;54.92
6218;BME280;3142;48.206;11.550;2023-04-07T08:57:29;95591.28;;;10.86;53.93
6218;BME280;3142;48.206;11.550;2023-04-07T08:59:57;95587.88;;;10.73;53.86
6218;BME280;3142;48.206;11.550;2023-04-07T09:02:26;95590.28;;;10.74;54.27
6218;BME280;3142;48.206;11.550;2023-04-07T09:04:53;95593.28;;;10.78;54.13
6218;BME280;3142;48.206;11.550;2023-04-07T09:07:21;95585.22;;;10.99;53.71
6218;BME280;3142;48.206;11.550;2023-04-07T09:09:47;95585.97;;;11.13;53.49
6218;BME280;3142;48.206;11.550;2023-04-07T09:12:14;95592.41;;;11.17;53.05
6218;BME280;3142;48.206;11.550;2023-04-07T09:14:42;95590.72;;;11.36;52.38
6218;BME280;3142;48.206;11.550;2023-04-07T09:17:09;95582.00;;;11.48;52.80
6218;BME280;3142;48.206;11.550;2023-04-07T09:19:35;95584.09;;;11.40;51.75
6218;BME280;3142;48.206;11.550;2023-04-07T09:22:01;95583.19;;;11.59;51.45
6218;BME280;3142;48.206;11.550;2023-04-07T09:24:28;95583.66;;;12.19;50.72
6218;BME280;3142;48.206;11.550;2023-04-07T09:27:09;95582.84;;;12.25;50.31
6218;BME280;3142;48.206;11.550;2023-04-07T09:29:36;95585.38;;;12.32;50.78
6218;BME280;3142;48.206;11.550;2023-04-07T09:32:05;95575.50;;;12.34;49.85
6218;BME280;3142;48.206;11.550;2023-04-07T09:34:33;95574.31;;;12.30;51.04
6218;BME280;3142;48.206;11.550;2023-04-07T09:37:00;95577.28;;;12.65;49.85
6218;BME280;3142;48.206;11.550;2023-04-07T09:39:27;95580.28;;;12.87;49.07
6218;BME280;3142;48.206;11.550;2023-04-07T09:41:54;95570.97;;;12.91;49.07
6218;BME280;3142;48.206;11.550;2023-04-07T09:44:21;95568.38;;;13.27;48.99
6218;BME280;3142;48.206;11.550;2023-04-07T09:46:49;95561.88;;;13.48;48.87
6218;BME280;3142;48.206;11.550;2023-04-07T09:49:17;95561.16;;;13.41;47.16
6218;BME280;3142;48.206;11.550;2023-04-07T09:51:54;95557.72;;;13.89;45.32
6218;BME280;3142;48.206;11.550;2023-04-07T09:54:32;95550.06;;;14.41;46.08
6218;BME280;3142;48.206;11.550;2023-04-07T09:57:00;95547.78;;;14.91;44.60
6218;BME280;3142;48.206;11.550;2023-04-07T09:59:27;95546.00;;;15.84;42.93
6218;BME280;3142;48.206;11.550;2023-04-07T10:01:54;95551.19;;;16.57;41.82
6218;BME280;3142;48.206;11.550;2023-04-07T10:04:22;95546.31;;;16.66;41.01
6218;BME280;3142;48.206;11.550;2023-04-07T10:06:49;95548.00;;;16.39;40.63
6218;BME280;3142;48.206;11.550;2023-04-07T10:09:17;95554.59;;;15.51;41.59
6218;BME280;3142;48.206;11.550;2023-04-07T10:11:44;95554.56;;;15.10;41.30
6218;BME280;3142;48.206;11.550;2023-04-07T10:14:11;95551.91;;;14.64;41.80
6218;BME280;3142;48.206;11.550;2023-04-07T10:16:37;95552.22;;;14.32;42.95
6218;BME280;3142;48.206;11.550;2023-04-07T10:19:05;95553.34;;;14.36;43.32
6218;BME280;3142;48.206;11.550;2023-04-07T10:21:37;95547.00;;;14.91;41.45
6218;BME280;3142;48.206;11.550;2023-04-07T10:24:13;95547.75;;;15.38;40.88
6218;BME280;3142;48.206;11.550;2023-04-07T10:26:45;95552.09;;;15.32;40.85
6218;BME280;3142;48.206;11.550;2023-04-07T10:29:13;95552.25;;;15.02;40.33
6218;BME280;3142;48.206;11.550;2023-04-07T10:31:41;95548.16;;;14.95;40.48
6218;BME280;3142;48.206;11.550;2023-04-07T10:34:08;95549.56;;;15.37;40.60
6218;BME280;3142;48.206;11.550;2023-04-07T10:37:08;95539.41;;;16.15;39.20
6218;BME280;3142;48.206;11.550;2023-04-07T10:39:34;95536.63;;;16.21;39.43
6218;BME280;3142;48.206;11.550;2023-04-07T10:42:02;95541.22;;;15.97;39.47
6218;BME280;3142;48.206;11.550;2023-04-07T10:44:45;95539.63;;;15.96;39.87
6218;BME280;3142;48.206;11.550;2023-04-07T10:47:14;95543.03;;;16.42;39.07
6218;BME280;3142;48.206;11.550;2023-04-07T10:50:18;95534.47;;;16.85;38.05
6218;BME280;3142;48.206;11.550;2023-04-07T10:52:45;95534.59;;;17.34;38.55
6218;BME280;3142;48.206;11.550;2023-04-07T10:55:37;95528.00;;;16.59;39.11
6218;BME280;3142;48.206;11.550;2023-04-07T10:58:22;95529.38;;;16.45;39.57
6218;BME280;3142;48.206;11.550;2023-04-07T11:01:16;95534.47;;;16.18;40.83
6218;BME280;3142;48.206;11.550;2023-04-07T11:03:58;95530.06;;;16.41;41.16
6218;BME280;3142;48.206;11.550;2023-04-07T11:06:26;95531.78;;;16.02;42.16
6218;BME280;3142;48.206;11.550;2023-04-07T11:08:53;95527.19;;;16.09;41.57
6218;BME280;3142;48.206;11.550;2023-04-07T11:11:34;95527.84;;;15.87;41.64
6218;BME280;3142;48.206;11.550;2023-04-07T11:14:01;95536.31;;;15.89;41.66
6218;BME280;3142;48.206;11.550;2023-04-07T11:16:34;95526.53;;;15.73;41.54
6218;BME280;3142;48.206;11.550;2023-04-07T11:19:01;95530.19;;;15.32;41.47
6218;BME280;3142;48.206;11.550;2023-04-07T11:21:29;95520.56;;;15.37;41.56
6218;BME280;3142;48.206;11.550;2023-04-07T11:23:55;95522.16;;;15.50;42.01
6218;BME280;3142;48.206;11.550;2023-04-07T11:26:22;95524.06;;;15.66;41.89
6218;BME280;3142;48.206;11.550;2023-04-07T11:28:49;95516.41;;;15.53;40.98
6218;BME280;3142;48.206;11.550;2023-04-07T11:31:20;95511.56;;;15.62;41.20
6218;BME280;3142;48.206;11.550;2023-04-07T11:33:51;95515.44;;;15.71;41.42
6218;BME280;3142;48.206;11.550;2023-04-07T11:36:25;95519.09;;;15.70;42.06
6218;BME280;3142;48.206;11.550;2023-04-07T11:38:54;95519.03;;;15.53;41.19
6218;BME280;3142;48.206;11.550;2023-04-07T11:41:21;95513.72;;;15.25;41.59
6218;BME280;3142;48.206;11.550;2023-04-07T11:43:48;95515.91;;;15.16;41.56
6218;BME280;3142;48.206;11.550;2023-04-07T11:46:16;95520.00;;;15.35;41.91
6218;BME280;3142;48.206;11.550;2023-04-07T11:48:44;95513.06;;;15.46;40.40
6218;BME280;3142;48.206;11.550;2023-04-07T11:51:15;95520.34;;;15.39;41.18
6218;BME280;3142;48.206;11.550;2023-04-07T11:53:42;95509.59;;;15.29;41.88
6218;BME280;3142;48.206;11.550;2023-04-07T11:56:12;95518.19;;;15.24;41.90
6218;BME280;3142;48.206;11.550;2023-04-07T11:58:46;95513.38;;;15.21;42.25
6218;BME280;3142;48.206;11.550;2023-04-07T12:01:13;95515.25;;;15.09;42.27
6218;BME280;3142;48.206;11.550;2023-04-07T12:03:54;95510.34;;;15.01;42.01
6218;BME280;3142;48.206;11.550;2023-04-07T12:06:26;95518.38;;;14.94;42.18
6218;BME280;3142;48.206;11.550;2023-04-07T12:08:53;95510.47;;;14.94;41.88
6218;BME280;3142;48.206;11.550;2023-04-07T12:11:21;95505.09;;;14.77;42.23
6218;BME280;3142;48.206;11.550;2023-04-07T12:13:47;95510.34;;;14.66;43.20
6218;BME280;3142;48.206;11.550;2023-04-07T12:16:14;95506.59;;;14.73;43.03
6218;BME280;3142;48.206;11.550;2023-04-07T12:18:40;95502.13;;;14.86;42.67
6218;BME280;3142;48.206;11.550;2023-04-07T12:21:06;95510.25;;;14.96;42.05
6218;BME280;3142;48.206;11.550;2023-04-07T12:23:33;95499.63;;;15.19;42.38
6218;BME280;3142;48.206;11.550;2023-04-07T12:25:59;95499.75;;;15.24;42.06
6218;BME280;3142;48.206;11.550;2023-04-07T12:28:27;95505.13;;;15.29;42.42
6218;BME280;3142;48.206;11.550;2023-04-07T12:30:54;95508.31;;;15.31;43.09
6218;BME280;3142;48.206;11.550;2023-04-07T12:33:20;95504.56;;;15.27;43.11
6218;BME280;3142;48.206;11.550;2023-04-07T12:35:47;95501.19;;;15.32;42.92
6218;BME280;3142;48.206;11.550;2023-04-07T12:38:13;95505.94;;;15.18;42.82
6218;BME280;3142;48.206;11.550;2023-04-07T12:40:40;95508.09;;;15.21;43.06
6218;BME280;3142;48.206;11.550;2023-04-07T12:43:07;95507.22;;;15.16;42.58
6218;BME280;3142;48.206;11.550;2023-04-07T12:45:35;95514.09;;;15.05;43.04
6218;BME280;3142;48.206;11.550;2023-04-07T12:48:01;95508.53;;;14.78;43.46
6218;BME280;3142;48.206;11.550;2023-04-07T12:50:28;95516.44;;;14.55;42.94
6218;BME280;3142;48.206;11.550;2023-04-07T12:52:56;95505.13;;;14.54;42.43
6218;BME280;3142;48.206;11.550;2023-04-07T12:55:25;95513.78;;;14.43;43.58
6218;BME280;3142;48.206;11.550;2023-04-07T12:57:52;95508.50;;;14.43;43.50
6218;BME280;3142;48.206;11.550;2023-04-07T13:00:19;95506.19;;;14.23;43.05
6218;BME280;3142;48.206;11.550;2023-04-07T13:02:47;95519.56;;;13.98;44.26
6218;BME280;3142;48.206;11.550;2023-04-07T13:05:13;95509.34;;;13.90;44.74
6218;BME280;3142;48.206;11.550;2023-04-07T13:07:40;95519.75;;;13.97;44.33
6218;BME280;3142;48.206;11.550;2023-04-07T13:10:07;95517.31;;;13.83;43.54
6218;BME280;3142;48.206;11.550;2023-04-07T13:12:34;95514.44;;;13.73;45.03
6218;BME280;3142;48.206;11.550;2023-04-07T13:15:01;95515.66;;;13.59;45.18
6218;BME280;3142;48.206;11.550;2023-04-07T13:17:28;95511.84;;;13.55;45.21
6218;BME280;3142;48.206;11.550;2023-04-07T13:19:56;95518.00;;;13.49;45.52
6218;BME280;3142;48.206;11.550;2023-04-07T13:22:22;95513.19;;;13.46;46.75